createdAt,value
2018-09-26T00:01:41.703Z,3.20
2018-09-26T00:04:14.420Z,3.20
2018-09-26T00:06:42.600Z,3.20
2018-09-26T00:09:12.401Z,3.10
2018-09-26T00:11:40.573Z,3.10
2018-09-26T00:14:09.147Z,3.10
2018-09-26T00:16:37.991Z,3.10
2018-09-26T00:19:06.157Z,3.10
2018-09-26T00:21:34.371Z,3.00
2018-09-26T00:24:02.560Z,3.00
2018-09-26T00:26:30.882Z,2.90
2018-09-26T00:28:59.039Z,2.80
2018-09-26T00:31:27.208Z,2.80
2018-09-26T00:33:55.379Z,2.80
2018-09-26T00:36:23.600Z,2.70
2018-09-26T00:38:51.824Z,2.70
2018-09-26T00:41:19.974Z,2.60
2018-09-26T00:43:48.466Z,2.60
2018-09-26T00:46:16.755Z,2.60
2018-09-26T00:48:44.916Z,2.50
2018-09-26T00:51:13.096Z,2.50
2018-09-26T00:53:41.871Z,2.50
2018-09-26T00:56:10.043Z,2.50
2018-09-26T00:58:38.195Z,2.50
2018-09-26T01:01:06.457Z,2.50
2018-09-26T01:03:34.619Z,2.50
2018-09-26T01:06:02.808Z,2.50
2018-09-26T01:08:30.967Z,2.50
2018-09-26T01:10:59.155Z,2.50
2018-09-26T01:13:27.347Z,2.40
2018-09-26T01:15:55.514Z,2.40
2018-09-26T01:18:23.663Z,2.40
2018-09-26T01:20:51.883Z,2.40
2018-09-26T01:23:20.081Z,2.40
2018-09-26T01:25:48.272Z,2.40
2018-09-26T01:28:16.448Z,2.40
2018-09-26T01:30:44.625Z,2.30
2018-09-26T01:33:12.819Z,2.30
2018-09-26T01:35:40.977Z,2.30
2018-09-26T01:38:09.137Z,2.20
2018-09-26T01:40:37.580Z,2.20
2018-09-26T01:43:05.754Z,2.20
2018-09-26T01:45:33.911Z,2.20
2018-09-26T01:48:02.428Z,2.20
2018-09-26T01:50:30.593Z,2.20
2018-09-26T01:52:58.758Z,2.10
2018-09-26T01:55:26.959Z,2.10
2018-09-26T01:57:55.175Z,2.10
2018-09-26T02:00:23.449Z,2.10
2018-09-26T02:02:51.623Z,2.10
2018-09-26T02:05:19.875Z,2.00
2018-09-26T02:07:48.041Z,2.00
2018-09-26T02:10:16.303Z,2.00
2018-09-26T02:12:44.521Z,1.90
2018-09-26T02:15:12.672Z,1.90
2018-09-26T02:17:40.844Z,1.90
2018-09-26T02:20:09.006Z,1.90
2018-09-26T02:22:37.151Z,1.90
2018-09-26T02:25:05.308Z,1.80
2018-09-26T02:27:33.461Z,1.80
2018-09-26T02:30:01.664Z,1.90
2018-09-26T02:32:29.959Z,1.80
2018-09-26T02:34:58.119Z,1.80
2018-09-26T02:37:26.294Z,1.80
2018-09-26T02:39:54.476Z,1.80
2018-09-26T02:42:22.633Z,1.70
2018-09-26T02:44:50.879Z,1.70
2018-09-26T02:47:19.051Z,1.70
2018-09-26T02:49:47.238Z,1.70
2018-09-26T02:52:15.420Z,1.70
2018-09-26T02:54:43.618Z,1.60
2018-09-26T02:57:11.789Z,1.60
2018-09-26T02:59:40.028Z,1.60
2018-09-26T03:02:08.214Z,1.60
2018-09-26T03:04:36.386Z,1.60
2018-09-26T03:07:04.667Z,1.60
2018-09-26T03:09:32.843Z,1.50
2018-09-26T03:12:01.031Z,1.50
2018-09-26T03:14:29.215Z,1.50
2018-09-26T03:16:57.390Z,1.60
2018-09-26T03:19:25.546Z,1.50
2018-09-26T03:21:53.807Z,1.50
2018-09-26T03:24:21.959Z,1.50
2018-09-26T03:26:50.132Z,1.50
2018-09-26T03:29:18.284Z,1.40
2018-09-26T03:31:46.453Z,1.40
2018-09-26T03:34:14.603Z,1.40
2018-09-26T03:36:42.774Z,1.40
2018-09-26T03:39:11.106Z,1.30
2018-09-26T03:41:39.285Z,1.30
2018-09-26T03:44:07.439Z,1.30
2018-09-26T03:46:35.701Z,1.20
2018-09-26T03:49:03.850Z,1.20
2018-09-26T03:51:32.015Z,1.10
2018-09-26T03:54:00.193Z,1.10
2018-09-26T03:56:28.371Z,1.00
2018-09-26T03:58:56.538Z,1.00
2018-09-26T04:01:24.864Z,1.00
2018-09-26T04:03:53.028Z,0.90
2018-09-26T04:06:21.191Z,0.90
2018-09-26T04:08:49.365Z,0.90
2018-09-26T04:11:17.548Z,0.90
2018-09-26T04:13:45.760Z,0.90
2018-09-26T04:16:13.919Z,0.90
2018-09-26T04:18:42.091Z,0.90
2018-09-26T04:21:10.244Z,0.80
2018-09-26T04:23:38.414Z,0.80
2018-09-26T04:26:06.807Z,0.80
2018-09-26T04:28:34.935Z,0.80
2018-09-26T04:31:03.115Z,0.80
2018-09-26T04:33:31.398Z,0.80
2018-09-26T04:36:00.457Z,0.80
2018-09-26T04:38:28.750Z,0.80
2018-09-26T04:40:57.248Z,0.70
2018-09-26T04:43:25.487Z,0.70
2018-09-26T04:45:53.711Z,0.70
2018-09-26T04:48:22.013Z,0.70
2018-09-26T04:50:50.252Z,0.70
2018-09-26T04:53:18.399Z,0.70
2018-09-26T04:55:46.592Z,0.70
2018-09-26T04:58:14.784Z,0.70
2018-09-26T05:00:42.906Z,0.70
2018-09-26T05:03:11.204Z,0.70
2018-09-26T05:05:39.373Z,0.70
2018-09-26T05:08:07.568Z,0.60
2018-09-26T05:10:35.864Z,0.50
2018-09-26T05:13:04.048Z,0.40
2018-09-26T05:15:32.215Z,0.40
2018-09-26T05:18:00.574Z,0.40
2018-09-26T05:20:28.762Z,0.30
2018-09-26T05:22:57.013Z,0.30
2018-09-26T05:25:25.191Z,0.20
2018-09-26T05:27:53.366Z,0.20
2018-09-26T05:30:21.564Z,0.20
2018-09-26T05:32:49.736Z,0.20
2018-09-26T05:35:18.152Z,0.30
2018-09-26T05:37:46.307Z,0.30
2018-09-26T05:40:14.777Z,0.30
2018-09-26T05:42:42.948Z,0.40
2018-09-26T05:45:11.240Z,0.40
2018-09-26T05:47:39.776Z,0.50
2018-09-26T05:50:07.969Z,0.60
2018-09-26T05:52:43.377Z,0.60
2018-09-26T05:55:26.511Z,0.70
2018-09-26T05:57:55.644Z,0.90
2018-09-26T06:00:23.813Z,1.00
2018-09-26T06:02:51.975Z,1.10
2018-09-26T06:05:20.378Z,1.20
2018-09-26T06:07:48.510Z,1.30
2018-09-26T06:10:17.013Z,1.40
2018-09-26T06:12:45.410Z,1.50
2018-09-26T06:15:13.663Z,1.50
2018-09-26T06:17:41.867Z,1.60
2018-09-26T06:20:10.037Z,1.60
2018-09-26T06:22:38.366Z,1.70
2018-09-26T06:25:06.831Z,1.90
2018-09-26T06:27:35.165Z,2.00
2018-09-26T06:30:03.326Z,2.10
2018-09-26T06:32:31.499Z,2.30
2018-09-26T06:34:59.731Z,2.40
2018-09-26T06:37:27.912Z,2.60
2018-09-26T06:39:56.184Z,2.70
2018-09-26T06:42:24.355Z,2.80
2018-09-26T06:44:52.519Z,2.90
2018-09-26T06:47:20.684Z,3.00
2018-09-26T06:49:48.824Z,3.20
2018-09-26T06:52:17.021Z,3.30
2018-09-26T06:54:45.331Z,3.50
2018-09-26T06:57:13.519Z,3.60
2018-09-26T06:59:41.680Z,3.80
2018-09-26T07:02:09.846Z,4.00
2018-09-26T07:04:38.016Z,4.10
2018-09-26T07:07:06.174Z,4.30
2018-09-26T07:09:34.346Z,4.50
2018-09-26T07:12:02.893Z,4.70
2018-09-26T07:14:31.202Z,4.90
2018-09-26T07:16:59.368Z,5.20
2018-09-26T07:19:27.575Z,5.40
2018-09-26T07:21:57.772Z,5.70
2018-09-26T07:24:32.218Z,6.00
2018-09-26T07:27:02.795Z,6.30
2018-09-26T07:29:30.967Z,6.50
2018-09-26T07:31:59.137Z,6.80
2018-09-26T07:34:32.680Z,7.10
2018-09-26T07:37:01.233Z,7.30
2018-09-26T07:39:29.461Z,7.60
2018-09-26T07:41:57.779Z,7.80
2018-09-26T07:44:25.981Z,8.00
2018-09-26T07:46:54.281Z,8.20
2018-09-26T07:49:22.639Z,8.40
2018-09-26T07:51:50.839Z,8.70
2018-09-26T07:54:19.363Z,9.00
2018-09-26T07:56:48.038Z,9.40
2018-09-26T07:59:16.503Z,9.70
2018-09-26T08:01:45.103Z,10.00
2018-09-26T08:04:13.315Z,10.40
2018-09-26T08:06:45.048Z,10.80
2018-09-26T08:09:15.468Z,11.10
2018-09-26T08:11:46.055Z,11.50
2018-09-26T08:14:15.417Z,11.60
2018-09-26T08:16:46.162Z,11.90
2018-09-26T08:19:15.660Z,12.20
2018-09-26T08:21:48.312Z,12.30
2018-09-26T08:24:16.591Z,12.50
2018-09-26T08:26:44.720Z,12.70
2018-09-26T08:29:12.931Z,13.00
2018-09-26T08:31:41.298Z,13.20
2018-09-26T08:34:09.548Z,13.50
2018-09-26T08:36:37.819Z,13.60
2018-09-26T08:39:09.134Z,13.80
2018-09-26T08:41:37.717Z,13.80
2018-09-26T08:44:05.964Z,14.00
2018-09-26T08:46:34.381Z,14.30
2018-09-26T08:49:02.540Z,14.80
2018-09-26T08:51:30.738Z,15.10
2018-09-26T08:53:58.944Z,15.50
2018-09-26T08:56:27.129Z,15.80
2018-09-26T08:58:57.493Z,15.90
2018-09-26T09:01:30.915Z,16.00
2018-09-26T09:03:59.190Z,16.10
2018-09-26T09:06:27.376Z,16.20
2018-09-26T09:08:55.578Z,16.10
2018-09-26T09:11:23.762Z,15.90
2018-09-26T09:13:51.958Z,16.00
2018-09-26T09:16:20.151Z,16.10
2018-09-26T09:18:48.319Z,16.20
2018-09-26T09:21:16.561Z,16.30
2018-09-26T09:23:44.732Z,16.40
2018-09-26T09:26:12.990Z,16.30
2018-09-26T09:28:41.133Z,16.30
2018-09-26T09:31:09.295Z,16.10
2018-09-26T09:33:37.795Z,16.00
2018-09-26T09:36:06.098Z,15.90
2018-09-26T09:38:34.247Z,16.00
2018-09-26T09:41:02.428Z,16.10
2018-09-26T09:43:32.260Z,16.50
2018-09-26T09:46:00.426Z,16.80
2018-09-26T09:48:28.616Z,17.20
2018-09-26T09:50:56.775Z,17.50
2018-09-26T09:53:25.880Z,17.90
2018-09-26T09:55:54.112Z,18.20
2018-09-26T09:58:22.684Z,18.30
2018-09-26T10:00:56.299Z,18.70
2018-09-26T10:03:24.454Z,18.80
2018-09-26T10:05:53.005Z,18.80
2018-09-26T10:08:21.355Z,18.70
2018-09-26T10:10:49.478Z,18.60
2018-09-26T10:13:17.632Z,19.00
2018-09-26T10:15:45.828Z,19.40
2018-09-26T10:18:14.307Z,19.50
2018-09-26T10:20:42.470Z,19.80
2018-09-26T10:23:11.030Z,20.10
2018-09-26T10:25:39.187Z,20.20
2018-09-26T10:28:07.415Z,20.30
2018-09-26T10:30:35.739Z,20.50
2018-09-26T10:33:09.379Z,20.70
2018-09-26T10:35:37.536Z,20.90
2018-09-26T10:38:05.736Z,20.90
2018-09-26T10:40:33.859Z,20.80
2018-09-26T10:43:02.024Z,21.00
2018-09-26T10:45:30.251Z,21.20
2018-09-26T10:47:58.464Z,21.10
2018-09-26T10:50:26.771Z,21.20
2018-09-26T10:52:54.826Z,21.40
2018-09-26T10:55:23.007Z,21.50
2018-09-26T10:57:51.168Z,21.70
2018-09-26T11:00:19.336Z,21.80
2018-09-26T11:02:47.510Z,22.00
2018-09-26T11:05:15.688Z,22.10
2018-09-26T11:07:43.839Z,22.00
2018-09-26T11:10:12.165Z,22.00
2018-09-26T11:12:40.432Z,22.10
2018-09-26T11:15:08.580Z,22.20
2018-09-26T11:17:36.732Z,22.40
2018-09-26T11:20:04.994Z,22.60
2018-09-26T11:22:33.158Z,22.70
2018-09-26T11:25:01.335Z,22.90
2018-09-26T11:27:29.503Z,23.10
2018-09-26T11:29:57.666Z,23.30
2018-09-26T11:32:25.954Z,23.50
2018-09-26T11:34:54.025Z,23.60
2018-09-26T11:37:22.196Z,23.50
2018-09-26T11:39:50.375Z,23.30
2018-09-26T11:42:18.558Z,23.60
2018-09-26T11:44:46.867Z,23.90
2018-09-26T11:47:14.967Z,24.10
2018-09-26T11:49:43.333Z,24.30
2018-09-26T11:52:11.532Z,24.30
2018-09-26T11:54:39.703Z,24.50
2018-09-26T11:57:08.075Z,24.40
2018-09-26T11:59:36.258Z,24.30
2018-09-26T12:02:04.528Z,24.30
2018-09-26T12:04:32.700Z,24.50
2018-09-26T12:07:01.126Z,24.60
2018-09-26T12:09:29.328Z,24.80
2018-09-26T12:11:57.564Z,24.80
2018-09-26T12:14:25.767Z,24.50
2018-09-26T12:16:54.012Z,24.30
2018-09-26T12:19:22.253Z,24.20
2018-09-26T12:21:50.401Z,24.50
2018-09-26T12:24:18.626Z,24.70
2018-09-26T12:26:46.776Z,24.80
2018-09-26T12:29:14.986Z,24.70
2018-09-26T12:31:43.171Z,24.20
2018-09-26T12:34:11.371Z,24.50
2018-09-26T12:36:39.599Z,24.70
2018-09-26T12:39:08.769Z,24.80
2018-09-26T12:41:37.080Z,24.90
2018-09-26T12:44:05.286Z,24.90
2018-09-26T12:46:33.658Z,24.70
2018-09-26T12:49:01.837Z,24.80
2018-09-26T12:51:30.060Z,24.90
2018-09-26T12:53:58.622Z,24.50
2018-09-26T12:56:26.988Z,24.60
2018-09-26T12:58:55.202Z,24.80
2018-09-26T13:01:23.563Z,24.90
2018-09-26T13:03:51.862Z,25.00
2018-09-26T13:06:20.056Z,25.10
2018-09-26T13:08:48.296Z,25.20
2018-09-26T13:11:16.470Z,25.10
2018-09-26T13:13:44.656Z,24.50
2018-09-26T13:16:12.881Z,24.40
2018-09-26T13:18:41.045Z,24.50
2018-09-26T13:21:09.226Z,24.60
2018-09-26T13:23:37.416Z,24.70
2018-09-26T13:26:05.624Z,24.50
2018-09-26T13:28:33.802Z,24.40
2018-09-26T13:31:01.977Z,24.40
2018-09-26T13:33:30.342Z,24.40
2018-09-26T13:35:58.779Z,24.50
2018-09-26T13:38:26.980Z,24.50
2018-09-26T13:40:55.176Z,24.50
2018-09-26T13:43:23.367Z,24.50
2018-09-26T13:45:51.645Z,24.20
2018-09-26T13:48:19.852Z,24.10
2018-09-26T13:50:48.014Z,24.00
2018-09-26T13:53:16.209Z,24.10
2018-09-26T13:55:44.638Z,24.20
2018-09-26T13:58:12.881Z,24.20
2018-09-26T14:00:41.021Z,24.20
2018-09-26T14:03:09.211Z,24.30
2018-09-26T14:05:37.448Z,24.30
2018-09-26T14:08:05.744Z,24.40
2018-09-26T14:10:34.075Z,24.50
2018-09-26T14:13:02.304Z,24.70
2018-09-26T14:15:30.493Z,24.80
2018-09-26T14:17:59.169Z,24.90
2018-09-26T14:20:44.411Z,24.90
2018-09-26T14:23:12.750Z,24.70
2018-09-26T14:25:41.259Z,24.50
2018-09-26T14:28:09.552Z,24.30
2018-09-26T14:30:38.276Z,23.90
2018-09-26T14:33:06.524Z,23.70
2018-09-26T14:35:34.779Z,23.60
2018-09-26T14:38:03.046Z,23.50
2018-09-26T14:40:31.287Z,23.40
2018-09-26T14:42:59.689Z,23.10
2018-09-26T14:45:28.002Z,22.90
2018-09-26T14:47:56.320Z,22.50
2018-09-26T14:50:25.231Z,22.30
2018-09-26T14:52:53.442Z,22.10
2018-09-26T14:55:21.781Z,21.90
2018-09-26T14:57:50.032Z,21.80
2018-09-26T15:00:18.465Z,21.80
2018-09-26T15:02:46.747Z,21.70
2018-09-26T15:05:14.996Z,21.70
2018-09-26T15:07:43.256Z,21.70
2018-09-26T15:10:11.599Z,21.60
2018-09-26T15:12:39.880Z,21.60
2018-09-26T15:15:08.139Z,21.50
2018-09-26T15:17:36.459Z,21.30
2018-09-26T15:20:05.245Z,21.10
2018-09-26T15:22:33.479Z,21.00
2018-09-26T15:25:01.723Z,20.90
2018-09-26T15:27:30.064Z,20.80
2018-09-26T15:29:58.604Z,20.60
2018-09-26T15:32:26.924Z,20.50
2018-09-26T15:34:55.190Z,20.40
2018-09-26T15:37:24.708Z,20.40
2018-09-26T15:39:53.024Z,20.10
2018-09-26T15:42:21.324Z,20.10
2018-09-26T15:44:49.918Z,19.90
2018-09-26T15:47:18.256Z,19.90
2018-09-26T15:49:46.547Z,19.80
2018-09-26T15:52:15.038Z,19.60
2018-09-26T15:54:43.399Z,19.50
2018-09-26T15:57:11.698Z,19.30
2018-09-26T15:59:39.983Z,19.10
2018-09-26T16:02:08.240Z,19.00
2018-09-26T16:04:36.374Z,18.90
2018-09-26T16:07:10.572Z,18.80
2018-09-26T16:09:38.817Z,18.70
2018-09-26T16:12:07.053Z,18.60
2018-09-26T16:14:35.178Z,18.50
2018-09-26T16:17:03.445Z,18.30
2018-09-26T16:19:31.684Z,18.10
2018-09-26T16:21:59.877Z,17.90
2018-09-26T16:24:28.061Z,17.70
2018-09-26T16:26:56.255Z,17.50
2018-09-26T16:29:24.406Z,17.30
2018-09-26T16:31:52.945Z,17.10
2018-09-26T16:34:21.344Z,17.00
2018-09-26T16:36:49.451Z,16.80
2018-09-26T16:39:17.750Z,16.70
2018-09-26T16:41:45.899Z,16.60
2018-09-26T16:44:14.505Z,16.50
2018-09-26T16:46:42.959Z,16.30
2018-09-26T16:49:11.302Z,16.20
2018-09-26T16:51:39.513Z,16.10
2018-09-26T16:54:08.626Z,15.90
2018-09-26T16:56:36.804Z,15.80
2018-09-26T16:59:05.132Z,15.70
2018-09-26T17:01:33.517Z,15.50
2018-09-26T17:04:03.849Z,15.40
2018-09-26T17:06:32.052Z,15.30
2018-09-26T17:09:00.965Z,15.20
2018-09-26T17:11:29.686Z,15.00
2018-09-26T17:13:57.947Z,14.90
2018-09-26T17:16:26.225Z,14.70
2018-09-26T17:18:55.351Z,14.50
2018-09-26T17:21:23.758Z,14.30
2018-09-26T17:23:52.800Z,14.20
2018-09-26T17:26:21.391Z,13.90
2018-09-26T17:28:49.719Z,13.70
2018-09-26T17:31:17.815Z,13.60
2018-09-26T17:33:45.995Z,13.40
2018-09-26T17:36:14.679Z,13.30
2018-09-26T17:38:43.125Z,13.30
2018-09-26T17:41:16.869Z,13.20
2018-09-26T17:43:45.523Z,13.10
2018-09-26T17:46:13.703Z,13.10
2018-09-26T17:48:42.095Z,13.00
2018-09-26T17:51:14.013Z,12.80
2018-09-26T17:53:54.000Z,12.70
2018-09-26T17:56:22.493Z,12.60
2018-09-26T17:58:50.735Z,12.50
2018-09-26T18:01:27.451Z,12.40
2018-09-26T18:03:55.919Z,12.40
2018-09-26T18:06:24.392Z,12.30
2018-09-26T18:08:53.013Z,12.20
2018-09-26T18:11:21.580Z,12.20
2018-09-26T18:13:49.791Z,12.10
2018-09-26T18:16:18.054Z,12.00
2018-09-26T18:21:42.608Z,11.90
2018-09-26T18:24:10.920Z,11.80
2018-09-26T18:26:39.143Z,11.70
2018-09-26T18:29:07.552Z,11.60
2018-09-26T18:31:35.744Z,11.50
2018-09-26T18:34:05.419Z,11.40
2018-09-26T18:36:33.621Z,11.30
2018-09-26T18:39:04.000Z,11.20
2018-09-26T18:41:32.182Z,11.10
2018-09-26T18:44:00.637Z,10.90
2018-09-26T18:46:28.832Z,10.80
2018-09-26T18:48:57.048Z,10.60
2018-09-26T18:51:25.284Z,10.50
2018-09-26T18:53:54.157Z,10.30
2018-09-26T18:56:22.647Z,10.20
2018-09-26T18:58:50.878Z,10.10
2018-09-26T19:01:19.038Z,9.90
2018-09-26T19:03:47.369Z,9.80
2018-09-26T19:06:15.634Z,9.70
2018-09-26T19:08:43.898Z,9.50
2018-09-26T19:11:12.106Z,9.50
2018-09-26T19:13:40.308Z,9.40
2018-09-26T19:16:08.487Z,9.30
2018-09-26T19:18:36.799Z,9.20
2018-09-26T19:21:05.074Z,9.10
2018-09-26T19:23:33.245Z,9.00
2018-09-26T19:26:01.441Z,8.90
2018-09-26T19:28:29.655Z,8.80
2018-09-26T19:30:58.097Z,8.70
2018-09-26T19:33:26.399Z,8.70
2018-09-26T19:35:54.767Z,8.60
2018-09-26T19:38:22.988Z,8.50
2018-09-26T19:40:51.236Z,8.50
2018-09-26T19:43:19.496Z,8.50
2018-09-26T19:45:47.729Z,8.50
2018-09-26T19:48:16.004Z,8.40
2018-09-26T19:50:44.163Z,8.40
2018-09-26T19:53:12.393Z,8.30
2018-09-26T19:55:40.907Z,8.30
2018-09-26T19:58:09.139Z,8.20
2018-09-26T20:00:37.304Z,8.20
2018-09-26T20:03:06.880Z,8.30
2018-09-26T20:05:35.147Z,8.30
2018-09-26T20:08:03.533Z,8.40
2018-09-26T20:10:32.487Z,8.40
2018-09-26T20:13:00.933Z,8.30
2018-09-26T20:15:30.149Z,8.30
2018-09-26T20:17:58.843Z,8.20
2018-09-26T20:20:27.424Z,8.10
2018-09-26T20:22:56.325Z,8.10
2018-09-26T20:25:26.461Z,8.00
2018-09-26T20:27:55.883Z,7.90
2018-09-26T20:30:26.603Z,7.80
2018-09-26T20:32:56.113Z,7.70
2018-09-26T20:35:25.359Z,7.70
2018-09-26T20:37:55.426Z,7.60
2018-09-26T20:40:28.675Z,7.60
2018-09-26T20:42:58.670Z,7.50
2018-09-26T20:45:27.063Z,7.50
2018-09-26T20:47:56.125Z,7.50
2018-09-26T20:50:24.593Z,7.50
2018-09-26T20:52:54.077Z,7.40
2018-09-26T20:55:22.359Z,7.40
2018-09-26T20:57:50.532Z,7.40
2018-09-26T21:00:19.009Z,7.30
2018-09-26T21:02:47.962Z,7.30
2018-09-26T21:05:16.560Z,7.30
2018-09-26T21:07:45.179Z,7.20
2018-09-26T21:10:13.970Z,7.20
2018-09-26T21:12:42.387Z,7.10
2018-09-26T21:15:11.516Z,7.00
2018-09-26T21:17:43.361Z,7.00
2018-09-26T21:20:11.542Z,6.90
2018-09-26T21:22:39.957Z,6.90
2018-09-26T21:25:08.222Z,6.80
2018-09-26T21:27:36.518Z,6.80
2018-09-26T21:30:04.924Z,6.70
2018-09-26T21:32:33.142Z,6.60
2018-09-26T21:35:01.325Z,6.60
2018-09-26T21:37:29.556Z,6.50
2018-09-26T21:39:57.775Z,6.50
2018-09-26T21:42:26.003Z,6.40
2018-09-26T21:44:54.222Z,6.40
2018-09-26T21:47:22.448Z,6.40
2018-09-26T21:49:50.669Z,6.40
2018-09-26T21:52:19.355Z,6.40
2018-09-26T21:54:47.993Z,6.40
2018-09-26T21:57:16.184Z,6.50
2018-09-26T21:59:44.411Z,6.50
2018-09-26T22:02:12.675Z,6.40
2018-09-26T22:04:40.867Z,6.40
2018-09-26T22:07:09.195Z,6.30
2018-09-26T22:09:37.442Z,6.30
2018-09-26T22:12:05.666Z,6.30
2018-09-26T22:14:33.875Z,6.20
2018-09-26T22:17:02.168Z,6.20
2018-09-26T22:19:30.479Z,6.10
2018-09-26T22:21:58.685Z,6.10
2018-09-26T22:24:26.925Z,6.10
2018-09-26T22:26:55.144Z,6.00
2018-09-26T22:29:23.343Z,6.00
2018-09-26T22:31:51.578Z,5.90
2018-09-26T22:34:19.793Z,5.90
2018-09-26T22:36:48.072Z,5.90
2018-09-26T22:39:16.280Z,5.90
2018-09-26T22:41:44.571Z,5.80
2018-09-26T22:44:12.792Z,5.80
2018-09-26T22:46:40.995Z,5.80
2018-09-26T22:49:09.294Z,5.70
2018-09-26T22:51:37.551Z,5.70
2018-09-26T22:54:05.760Z,5.70
